createdAt,value
2023-05-23T00:09:55.442Z,3.35
2023-05-23T00:19:56.992Z,3.38
2023-05-23T00:29:58.563Z,3.80
2023-05-23T00:40:00.657Z,4.28
2023-05-23T00:50:02.340Z,3.47
2023-05-23T01:00:04.343Z,3.72
2023-05-23T01:10:07.041Z,2.95
2023-05-23T01:20:13.183Z,3.20
2023-05-23T01:30:19.132Z,3.35
2023-05-23T01:40:22.941Z,2.85
2023-05-23T01:50:24.653Z,3.08
2023-05-23T02:00:26.286Z,3.08
2023-05-23T02:10:27.992Z,2.80
2023-05-23T02:20:29.825Z,3.00
2023-05-23T02:30:31.513Z,3.20
2023-05-23T02:40:33.152Z,3.10
2023-05-23T02:50:36.330Z,3.03
2023-05-23T03:00:38.094Z,2.70
2023-05-23T03:10:39.738Z,2.90
2023-05-23T03:20:41.366Z,2.72
2023-05-23T03:30:42.955Z,2.70
2023-05-23T03:40:44.658Z,3.40
2023-05-23T03:50:46.573Z,2.75
2023-05-23T04:00:48.465Z,2.70
2023-05-23T04:10:51.422Z,2.65
2023-05-23T04:20:54.398Z,2.55
2023-05-23T04:30:56.482Z,2.40
2023-05-23T04:41:01.414Z,2.65
2023-05-23T04:51:22.089Z,2.30
2023-05-23T05:01:31.267Z,2.20
2023-05-23T05:11:33.153Z,2.08
2023-05-23T05:21:34.904Z,2.30
2023-05-23T05:31:37.718Z,1.65
2023-05-23T05:41:40.564Z,2.38
2023-05-23T05:51:42.828Z,2.22
2023-05-23T06:01:44.911Z,2.00
2023-05-23T06:11:47.158Z,2.30
2023-05-23T06:21:50.666Z,1.90
2023-05-23T06:31:52.598Z,1.70
2023-05-23T06:41:54.424Z,1.67
2023-05-23T06:51:56.123Z,1.75
2023-05-23T07:01:58.089Z,1.88
2023-05-23T07:12:00.258Z,1.67
2023-05-23T07:22:01.959Z,1.75
2023-05-23T07:32:05.638Z,1.63
2023-05-23T07:42:07.361Z,1.73
2023-05-23T07:52:09.119Z,1.60
2023-05-23T08:02:11.682Z,1.60
2023-05-23T08:12:15.370Z,1.40
2023-05-23T08:22:18.289Z,1.55
2023-05-23T08:32:20.008Z,1.83
2023-05-23T08:42:21.774Z,1.60
2023-05-23T08:52:25.265Z,1.50
2023-05-23T09:02:30.097Z,1.48
2023-05-23T09:12:43.484Z,1.40
2023-05-23T09:22:48.197Z,1.50
2023-05-23T09:43:07.793Z,1.73
2023-05-23T09:53:10.800Z,1.70
2023-05-23T10:03:14.014Z,1.58
2023-05-23T10:13:16.127Z,1.45
2023-05-23T10:23:18.309Z,1.73
2023-05-23T10:33:19.898Z,1.35
2023-05-23T10:43:29.610Z,1.40
2023-05-23T10:53:32.759Z,1.70
2023-05-23T11:03:36.915Z,1.20
2023-05-23T11:13:56.588Z,1.48
2023-05-23T11:23:58.487Z,1.30
2023-05-23T11:34:00.929Z,1.30
2023-05-23T11:44:11.246Z,1.60
2023-05-23T11:54:12.821Z,1.25
2023-05-23T12:04:14.677Z,1.42
2023-05-23T12:14:17.673Z,1.15
2023-05-23T12:24:21.243Z,1.15
2023-05-23T12:34:22.847Z,1.15
2023-05-23T12:44:29.782Z,1.30
2023-05-23T12:54:31.386Z,1.15
2023-05-23T13:04:33.240Z,1.35
2023-05-23T13:14:34.900Z,0.85
2023-05-23T13:24:40.328Z,1.25
2023-05-23T13:34:42.108Z,1.25
2023-05-23T13:44:43.667Z,1.10
2023-05-23T13:54:46.276Z,1.13
2023-05-23T14:04:48.717Z,1.17
2023-05-23T14:14:50.962Z,1.20
2023-05-23T14:24:52.573Z,1.40
2023-05-23T14:34:55.265Z,1.25
2023-05-23T14:44:56.903Z,1.00
2023-05-23T14:54:58.512Z,1.17
2023-05-23T15:05:00.167Z,1.20
2023-05-23T15:15:04.465Z,1.00
2023-05-23T15:25:07.115Z,1.00
2023-05-23T15:35:09.095Z,0.80
2023-05-23T15:45:11.134Z,1.17
2023-05-23T15:55:12.718Z,1.00
2023-05-23T16:05:14.353Z,1.00
2023-05-23T16:15:15.965Z,1.20
2023-05-23T16:25:17.738Z,0.95
2023-05-23T16:35:19.359Z,1.38
2023-05-23T16:45:21.231Z,1.20
2023-05-23T16:55:22.939Z,1.27
2023-05-23T17:05:25.278Z,0.88
2023-05-23T17:15:26.872Z,1.10
2023-05-23T17:25:28.453Z,1.10
2023-05-23T17:35:30.012Z,0.90
2023-05-23T17:45:31.577Z,1.33
2023-05-23T17:55:33.357Z,1.00
2023-05-23T18:05:34.927Z,1.10
2023-05-23T18:15:36.471Z,0.95
2023-05-23T18:25:38.138Z,0.90
2023-05-23T18:35:40.027Z,1.10
2023-05-23T18:45:41.998Z,0.98
2023-05-23T18:55:43.719Z,1.50
2023-05-23T19:05:45.765Z,1.20
2023-05-23T19:15:47.468Z,1.10
2023-05-23T19:25:49.050Z,1.00
2023-05-23T19:35:51.497Z,1.30
2023-05-23T19:45:53.159Z,1.10
2023-05-23T19:55:54.776Z,1.17
2023-05-23T20:05:56.700Z,1.08
2023-05-23T20:15:58.515Z,1.10
2023-05-23T20:26:00.577Z,1.40
2023-05-23T20:36:02.140Z,0.98
2023-05-23T20:46:09.037Z,1.20
2023-05-23T20:56:10.587Z,0.80
2023-05-23T21:06:12.197Z,0.80
2023-05-23T21:16:14.648Z,0.80
2023-05-23T21:26:16.419Z,1.13
2023-05-23T21:36:18.018Z,1.33
2023-05-23T21:46:20.050Z,0.90
2023-05-23T21:56:21.682Z,0.95
2023-05-23T22:06:23.300Z,0.93
2023-05-23T22:16:25.898Z,1.20
2023-05-23T22:26:28.057Z,1.35
2023-05-23T22:36:29.806Z,1.92
2023-05-23T22:46:31.598Z,1.55
2023-05-23T22:56:33.298Z,1.13
2023-05-23T23:06:35.516Z,1.10
2023-05-23T23:16:37.982Z,0.95
2023-05-23T23:26:39.607Z,1.52
2023-05-23T23:36:41.409Z,1.17
2023-05-23T23:46:43.033Z,1.33
2023-05-23T23:56:44.695Z,1.10
